Weather observations for the past three days for
Fort Drum / Wheeler-Sack U. S. Army Airfield
| Date | Time (edt) | Wind (mph) | Vis. (mi.) | Weather | Sky Cond. | Temperature (ºF) | Relative Humidity | Wind Chill (°F) | Heat Index (°F) | Pressure | Precipitation (in) | ||||||
|---|---|---|---|---|---|---|---|---|---|---|---|---|---|---|---|---|---|
| Air | Dwpt | 6 hour | altimeter (in) | sea level (mb) | 1 hr | 3 hr | 6 hr | ||||||||||
| Max. | Min. | ||||||||||||||||
| 10 | 13:55 | W 15 G 22 | 10.00 | Fair | CLR | 54.1 | 30.9 | 55.4 | 47.8 | 41% | 29.91 | 1013.0 | |||||
| 10 | 12:55 | W 14 G 22 | 10.00 | Fair | CLR | 53.6 | 28.6 | 38% | 29.9 | 1012.6 | |||||||
| 10 | 11:55 | SW 21 G 26 | 10.00 | Fair and Breezy | CLR | 53.2 | 30.2 | 41% | 29.89 | 1012.3 | |||||||
| 10 | 10:55 | W 15 G 24 | 10.00 | Fair | CLR | 52.5 | 34 | 49% | 29.87 | 1011.7 | |||||||
| 10 | 09:55 | W 12 | 10.00 | A Few Clouds | FEW085 | 51.4 | 36.3 | 56% | 29.86 | 1011.3 | |||||||
| 10 | 08:55 | W 9 | 10.00 | Partly Cloudy | SCT075 SCT090 | 50.2 | 38.8 | 65% | 29.84 | 1010.6 | |||||||
| 10 | 07:55 | SW 6 | 10.00 | Mostly Cloudy | FEW060 BKN085 | 47.7 | 37.9 | 52.5 | 45.9 | 69% | 45 | 29.81 | 1009.6 | 0.01 | |||
| 10 | 06:55 | SW 14 | 10.00 | Mostly Cloudy | BKN055 BKN075 | 46 | 37.6 | 72% | 40 | 29.79 | 1008.9 | ||||||
| 10 | 05:55 | SW 8 | 10.00 | Overcast | BKN048 OVC120 | 48.2 | 42.6 | 81% | 45 | 29.76 | 1007.9 | 0.01 | |||||
| 10 | 04:55 | W 10 | 10.00 | Light Rain | FEW010 SCT041 BKN060 | 50.5 | 47.5 | 89% | 29.74 | 1007.1 | |||||||
| 10 | 03:55 | SW 12 | 10.00 | Overcast | BKN015 OVC023 | 52.3 | 47.7 | 84% | 29.73 | 1006.7 | |||||||
| 10 | 02:55 | SW 9 | 10.00 | Mostly Cloudy | BKN021 | 52 | 47.3 | 84% | 29.71 | 1006.1 | |||||||
| 10 | 01:55 | SW 9 | 10.00 | Mostly Cloudy | BKN110 | 51.6 | 46.6 | 57 | 51.6 | 83% | 29.7 | 1005.7 | 0.11 | ||||
| 10 | 00:55 | SW 10 | 10.00 | A Few Clouds | FEW090 | 52 | 46.9 | 83% | 29.69 | 1005.4 | |||||||
| 09 | 23:55 | SW 14 | 10.00 | Partly Cloudy | FEW050 SCT090 | 52.7 | 48.6 | 86% | 29.68 | 1005.0 | 0.02 | ||||||
| 09 | 22:55 | SW 10 | 8.00 | Rain | OVC042 | 52.5 | 49.6 | 90% | 29.68 | 1005.1 | 0.09 | 0.09 | |||||
| 09 | 21:55 | S 16 | 10.00 | Fair | CLR | 55 | 47.3 | 75% | 29.62 | 1003.1 | |||||||
| 09 | 20:55 | SE 14 | 10.00 | Fair | CLR | 55.4 | 47.3 | 74% | 29.63 | 1003.4 | |||||||
| 09 | 19:55 | SE 12 | 10.00 | Fair | CLR | 57.2 | 47.1 | 63.9 | 57.2 | 69% | 29.63 | 1003.5 | |||||
| 09 | 18:55 | SE 13 | 10.00 | Mostly Cloudy | BKN039 | 59.2 | 46.9 | 64% | 29.63 | 1003.5 | |||||||
| 09 | 17:55 | SE 10 | 10.00 | A Few Clouds | FEW042 | 59 | 46.8 | 64% | 29.63 | 1003.6 | |||||||
| 09 | 16:55 | SE 10 G 21 | 10.00 | Fair | CLR | 60.4 | 46.4 | 60% | 29.65 | 1004.2 | |||||||
| 09 | 15:55 | S 21 | 10.00 | Fair and Breezy | CLR | 61.2 | 45.9 | 57% | 29.66 | 1004.6 | |||||||
| 09 | 14:55 | S 16 | 10.00 | Mostly Cloudy | FEW042 BKN070 | 61.3 | 44.1 | 53% | 29.67 | 1004.9 | |||||||
| 09 | 13:55 | SE 17 G 24 | 10.00 | Partly Cloudy | FEW043 SCT060 | 62.2 | 41.2 | 63.7 | 47.1 | 46% | 29.67 | 1004.9 | |||||
| 09 | 12:55 | S 14 | 10.00 | Mostly Cloudy | FEW040 BKN055 BKN210 | 61.2 | 42.4 | 50% | 29.7 | 1005.9 | |||||||
| 09 | 11:55 | SE 14 | 10.00 | A Few Clouds | FEW170 | 59.5 | 41.9 | 52% | 29.73 | 1006.9 | |||||||
| 09 | 10:55 | SE 14 | 10.00 | Fair | CLR | 57.7 | 41.2 | 54% | 29.75 | 1007.6 | |||||||
| 09 | 09:55 | SE 14 G 22 | 10.00 | Mostly Cloudy | BKN110 | 55.2 | 37.4 | 51% | 29.76 | 1008.0 | |||||||
| 09 | 08:55 | SE 15 | 10.00 | Fair | CLR | 52 | 30.7 | 44% | 29.76 | 1008.1 | |||||||
| 09 | 07:55 | SE 12 | 10.00 | Fair | CLR | 46.9 | 29.3 | 46.9 | 37.9 | 50% | 42 | 29.78 | 1008.7 | ||||
| 09 | 06:55 | SE 12 | 10.00 | Fair | CLR | 41.4 | 29.7 | 63% | 35 | 29.78 | 1008.7 | ||||||
| 09 | 05:55 | SE 12 | 10.00 | Fair | CLR | 38.1 | 29.5 | 71% | 31 | 29.78 | 1008.8 | ||||||
| 09 | 04:55 | SE 12 | 10.00 | Fair | CLR | 38.3 | 29.3 | 70% | 32 | 29.79 | 1009.1 | ||||||
| 09 | 03:55 | SE 13 | 10.00 | Fair | CLR | 38.8 | 28.8 | 67% | 32 | 29.79 | 1009.1 | ||||||
| 09 | 02:55 | SE 12 | 10.00 | Partly Cloudy | SCT140 | 39.9 | 28.4 | 64% | 34 | 29.8 | 1009.4 | ||||||
| 09 | 01:55 | SE 10 | 10.00 | Fair | CLR | 39.7 | 27 | 47.8 | 38.3 | 60% | 34 | 29.81 | 1009.8 | ||||
| 09 | 00:55 | SE 8 | 10.00 | Fair | CLR | 40.6 | 26.2 | 57% | 36 | 29.82 | 1010.1 | ||||||
| 08 | 23:55 | S 7 | 10.00 | Fair | CLR | 41.4 | 23.7 | 50% | 37 | 29.82 | 1010.1 | ||||||
| 08 | 22:55 | S 8 | 10.00 | Fair | CLR | 41.5 | 26.1 | 54% | 37 | 29.83 | 1010.5 | ||||||
| 08 | 21:55 | S 7 | 10.00 | Fair | CLR | 40.1 | 27.7 | 61% | 36 | 29.83 | 1010.5 | ||||||
| 08 | 20:55 | SW 5 | 10.00 | Fair | CLR | 40.8 | 26.4 | 57% | 38 | 29.81 | 1009.8 | ||||||
| 08 | 19:55 | SW 6 | 10.00 | Fair | CLR | 48 | 24.3 | 53.6 | 48 | 39% | 46 | 29.8 | 1009.4 | ||||
| 08 | 18:55 | W 13 | 10.00 | Fair | CLR | 50.9 | 22.1 | 32% | 29.8 | 1009.4 | |||||||
| 08 | 17:55 | SW 13 | 10.00 | Fair | CLR | 51.8 | 24.3 | 34% | 29.8 | 1009.5 | |||||||
| 08 | 16:55 | W 12 G 22 | 10.00 | Fair | CLR | 52.3 | 24.8 | 34% | 29.8 | 1009.5 | |||||||
| 08 | 15:55 | W 10 G 22 | 10.00 | Fair | CLR | 52.3 | 27.5 | 38% | 29.81 | 1009.8 | |||||||
| 08 | 14:55 | W 10 G 18 | 10.00 | Overcast | OVC090 | 52 | 25.9 | 36% | 29.81 | 1009.8 | |||||||
| 08 | 13:55 | W 12 G 22 | 10.00 | Overcast | FEW055 OVC090 | 51.3 | 24.6 | 53.1 | 43 | 35% | 29.82 | 1010.1 | |||||
| 08 | 12:55 | W 9 | 10.00 | Overcast | SCT050 OVC085 | 49.6 | 27.5 | 42% | 46 | 29.81 | 1009.8 | ||||||
| 08 | 11:55 | W 13 G 22 | 10.00 | Mostly Cloudy | SCT049 SCT060 BKN090 | 49.6 | 26.2 | 40% | 45 | 29.82 | 1010.1 | ||||||
| 08 | 10:55 | W 13 G 20 | 10.00 | Partly Cloudy | SCT049 | 49.3 | 27.1 | 42% | 45 | 29.82 | 1010.1 | ||||||
| 08 | 09:55 | W 7 | 10.00 | Partly Cloudy | SCT041 | 46.9 | 26.8 | 46% | 44 | 29.82 | 1010.1 | ||||||
| 08 | 08:55 | W 7 | 10.00 | Fair | CLR | 45.5 | 27.9 | 50% | 42 | 29.82 | 1010.1 | ||||||
| 08 | 07:55 | SW 9 | 10.00 | Fair | CLR | 42.8 | 31.5 | 42.8 | 37.8 | 64% | 38 | 29.82 | 1010.1 | ||||
| 08 | 06:55 | SW 7 | 10.00 | Overcast | OVC090 | 40.3 | 30.6 | 68% | 36 | 29.82 | 1010.1 | ||||||
| 08 | 05:55 | SW 6 | 10.00 | Overcast | OVC085 | 37.8 | 28.6 | 70% | 34 | 29.81 | 1009.8 | ||||||
| 08 | 04:55 | W 6 | 10.00 | Overcast | OVC085 | 39 | 28.2 | 65% | 35 | 29.8 | 1009.5 | ||||||
| 08 | 03:55 | W 5 | 10.00 | Overcast | OVC090 | 39.4 | 27.5 | 63% | 37 | 29.8 | 1009.5 | ||||||
| 08 | 02:55 | W 6 | 10.00 | Overcast | OVC085 | 40.1 | 29.7 | 66% | 37 | 29.79 | 1009.1 | ||||||
| 08 | 01:55 | SW 7 | 10.00 | Overcast | BKN080 OVC095 | 41.4 | 31.6 | 46.2 | 40.1 | 68% | 37 | 29.79 | 1009.1 | ||||
| 08 | 00:55 | SW 6 | 10.00 | Overcast | SCT075 OVC095 | 41 | 32 | 70% | 38 | 29.79 | 1009.1 | ||||||
| 07 | 23:55 | W 7 | 10.00 | Fair | CLR | 40.1 | 31.1 | 70% | 36 | 29.79 | 1009.1 | ||||||
| 07 | 22:55 | SW 7 | 10.00 | Fair | CLR | 40.8 | 30.7 | 67% | 37 | 29.79 | 1009.1 | ||||||
| 07 | 21:55 | SW 8 | 10.00 | Fair | CLR | 41.2 | 29.5 | 63% | 37 | 29.78 | 1008.8 | ||||||
| 07 | 20:55 | SW 9 | 10.00 | Fair | CLR | 44.1 | 28.4 | 54% | 40 | 29.78 | 1008.8 | ||||||
| 07 | 19:55 | W 10 | 10.00 | Fair | CLR | 46.4 | 26.8 | 52.2 | 46.4 | 46% | 42 | 29.76 | 1008.1 | ||||
| 07 | 18:55 | W 12 | 10.00 | Fair | CLR | 49.3 | 26.1 | 40% | 45 | 29.76 | 1008.1 | ||||||
| 07 | 17:55 | W 12 | 10.00 | Mostly Cloudy | BKN080 | 50.2 | 27.3 | 41% | 29.77 | 1008.5 | |||||||
| 07 | 16:55 | W 10 G 21 | 10.00 | Fair | CLR | 51.4 | 27.9 | 40% | 29.77 | 1008.4 | |||||||
| 07 | 15:55 | W 13 G 21 | 10.00 | A Few Clouds | FEW049 | 51.4 | 28.6 | 41% | 29.78 | 1008.8 | |||||||
| 07 | 14:55 | W 13 G 22 | 10.00 | Partly Cloudy | SCT049 | 50.9 | 28.6 | 42% | 29.79 | 1009.1 | |||||||
| Date | Time (edt) | Wind (mph) | Vis. (mi.) | Weather | Sky Cond. | Air | Dwpt | Max. | Min. | Relative Humidity | Wind Chill (°F) | Heat Index (°F) | altimeter (in) | sea level (mb) | 1 hr | 3 hr | 6 hr |
| 6 hour | |||||||||||||||||
| Temperature (ºF) | Pressure | Precipitation (in) | |||||||||||||||